createdAt,value
2023-05-21T00:00:12.247Z,98415.38
2023-05-21T00:02:40.308Z,98408.19
2023-05-21T00:05:14.321Z,98411.94
2023-05-21T00:07:41.701Z,98414.56
2023-05-21T00:10:09.304Z,98416.50
2023-05-21T00:12:36.205Z,98411.81
2023-05-21T00:15:03.499Z,98411.13
2023-05-21T00:17:30.415Z,98405.34
2023-05-21T00:19:57.516Z,98403.28
2023-05-21T00:22:24.381Z,98397.69
2023-05-21T00:24:51.371Z,98396.09
2023-05-21T00:27:18.393Z,98402.25
2023-05-21T00:29:45.348Z,98393.28
2023-05-21T00:32:12.218Z,98393.72
2023-05-21T00:34:39.746Z,98385.19
2023-05-21T00:37:10.960Z,98395.41
2023-05-21T00:39:37.875Z,98384.25
2023-05-21T00:42:05.087Z,98379.03
2023-05-21T00:44:34.567Z,98372.44
2023-05-21T00:47:02.658Z,98373.56
2023-05-21T00:49:31.703Z,98372.19
2023-05-21T00:52:01.767Z,98379.56
2023-05-21T00:54:30.742Z,98372.41
2023-05-21T00:56:58.738Z,98374.56
2023-05-21T00:59:26.037Z,98375.59
2023-05-21T01:01:56.178Z,98370.38
2023-05-21T01:04:24.048Z,98366.59
2023-05-21T01:06:53.298Z,98367.28
2023-05-21T01:09:20.592Z,98368.78
2023-05-21T01:11:50.682Z,98360.22
2023-05-21T01:14:20.028Z,98363.78
2023-05-21T01:16:50.178Z,98361.72
2023-05-21T01:19:22.719Z,98355.34
2023-05-21T01:22:07.774Z,98358.06
2023-05-21T01:24:35.465Z,98358.63
2023-05-21T01:27:06.491Z,98353.50
2023-05-21T01:29:33.978Z,98353.38
2023-05-21T01:32:23.096Z,98348.50
2023-05-21T01:35:12.918Z,98349.50
2023-05-21T01:37:48.362Z,98346.53
2023-05-21T01:40:28.942Z,98352.06
2023-05-21T01:42:57.586Z,98346.84
2023-05-21T01:45:27.117Z,98337.06
2023-05-21T01:47:55.970Z,98339.22
2023-05-21T01:50:25.065Z,98340.97
2023-05-21T01:52:54.474Z,98338.44
2023-05-21T01:55:24.965Z,98334.69
2023-05-21T01:57:54.236Z,98344.72
2023-05-21T02:00:23.105Z,98337.22
2023-05-21T02:02:50.562Z,98329.91
2023-05-21T02:05:18.474Z,98341.03
2023-05-21T02:07:46.220Z,98345.25
2023-05-21T02:10:13.592Z,98344.09
2023-05-21T02:12:40.571Z,98345.91
2023-05-21T02:15:10.919Z,98335.19
2023-05-21T02:17:40.725Z,98334.63
2023-05-21T02:20:11.747Z,98333.56
2023-05-21T02:22:44.756Z,98336.75
2023-05-21T02:25:14.592Z,98333.09
2023-05-21T02:27:43.024Z,98333.50
2023-05-21T02:30:12.519Z,98336.25
2023-05-21T02:32:45.271Z,98332.13
2023-05-21T02:35:13.272Z,98330.53
2023-05-21T02:37:40.846Z,98328.94
2023-05-21T02:40:13.012Z,98323.16
2023-05-21T02:42:41.289Z,98327.69
2023-05-21T02:45:10.907Z,98322.44
2023-05-21T02:47:41.022Z,98323.38
2023-05-21T02:50:09.614Z,98326.13
2023-05-21T02:52:36.504Z,98323.19
2023-05-21T02:55:04.718Z,98325.72
2023-05-21T02:57:31.513Z,98319.81
2023-05-21T02:59:58.611Z,98320.13
2023-05-21T03:02:25.581Z,98317.81
2023-05-21T03:04:54.121Z,98316.63
2023-05-21T03:07:21.722Z,98310.25
2023-05-21T03:09:48.597Z,98319.81
2023-05-21T03:12:15.575Z,98315.97
2023-05-21T03:14:44.025Z,98318.50
2023-05-21T03:17:13.943Z,98316.69
2023-05-21T03:19:42.022Z,98313.16
2023-05-21T03:22:09.662Z,98311.91
2023-05-21T03:24:38.099Z,98318.38
2023-05-21T03:27:06.755Z,98325.69
2023-05-21T03:29:34.747Z,98311.03
2023-05-21T03:32:02.511Z,98311.03
2023-05-21T03:34:29.418Z,98309.28
2023-05-21T03:36:56.309Z,98319.53
2023-05-21T03:39:23.146Z,98311.94
2023-05-21T03:41:50.130Z,98310.56
2023-05-21T03:44:17.116Z,98313.13
2023-05-21T03:46:45.620Z,98309.75
2023-05-21T03:49:13.871Z,98311.13
2023-05-21T03:51:40.804Z,98320.59
2023-05-21T03:54:07.624Z,98313.06
2023-05-21T03:56:34.488Z,98307.41
2023-05-21T03:59:01.494Z,98314.13
2023-05-21T04:01:28.348Z,98314.53
2023-05-21T04:03:55.759Z,98307.03
2023-05-21T04:06:23.271Z,98309.44
2023-05-21T04:08:50.381Z,98315.19
2023-05-21T04:11:17.453Z,98315.19
2023-05-21T04:13:44.299Z,98317.16
2023-05-21T04:16:14.413Z,98318.84
2023-05-21T04:18:44.156Z,98327.25
2023-05-21T04:21:12.857Z,98325.50
2023-05-21T04:23:40.077Z,98329.50
2023-05-21T04:26:07.659Z,98331.28
2023-05-21T04:28:35.400Z,98328.09
2023-05-21T04:31:02.645Z,98342.41
2023-05-21T04:33:30.408Z,98340.13
2023-05-21T04:35:57.700Z,98349.72
2023-05-21T04:38:24.515Z,98343.44
2023-05-21T04:40:51.958Z,98349.91
2023-05-21T04:43:31.898Z,98350.19
2023-05-21T04:45:58.754Z,98351.09
2023-05-21T04:48:28.938Z,98351.06
2023-05-21T04:50:56.701Z,98351.72
2023-05-21T04:53:26.503Z,98354.56
2023-05-21T04:55:53.245Z,98352.66
2023-05-21T04:58:20.272Z,98353.91
2023-05-21T05:00:48.451Z,98352.75
2023-05-21T05:03:15.480Z,98351.97
2023-05-21T05:05:42.412Z,98354.34
2023-05-21T05:08:09.207Z,98346.19
2023-05-21T05:10:36.281Z,98353.38
2023-05-21T05:13:03.384Z,98354.28
2023-05-21T05:15:30.456Z,98358.88
2023-05-21T05:17:57.445Z,98361.03
2023-05-21T05:20:27.312Z,98353.00
2023-05-21T05:22:54.173Z,98356.44
2023-05-21T05:25:21.089Z,98360.16
2023-05-21T05:27:47.917Z,98351.91
2023-05-21T05:30:14.854Z,98350.69
2023-05-21T05:32:42.016Z,98351.47
2023-05-21T05:35:09.728Z,98349.56
2023-05-21T05:37:36.515Z,98340.97
2023-05-21T05:40:05.196Z,98338.94
2023-05-21T05:42:31.967Z,98343.94
2023-05-21T05:44:58.992Z,98348.16
2023-05-21T05:47:26.324Z,98346.78
2023-05-21T05:49:53.211Z,98347.03
2023-05-21T05:52:20.066Z,98347.84
2023-05-21T05:54:47.380Z,98338.72
2023-05-21T05:57:17.036Z,98344.88
2023-05-21T05:59:43.802Z,98348.19
2023-05-21T06:02:11.064Z,98342.72
2023-05-21T06:04:37.869Z,98345.75
2023-05-21T06:07:05.003Z,98343.69
2023-05-21T06:09:31.781Z,98345.84
2023-05-21T06:11:58.591Z,98353.25
2023-05-21T06:14:25.622Z,98353.47
2023-05-21T06:16:52.577Z,98356.88
2023-05-21T06:19:19.967Z,98357.75
2023-05-21T06:21:47.405Z,98353.97
2023-05-21T06:24:14.219Z,98354.63
2023-05-21T06:26:41.812Z,98352.19
2023-05-21T06:29:08.803Z,98357.16
2023-05-21T06:31:35.862Z,98361.34
2023-05-21T06:34:02.935Z,98353.75
2023-05-21T06:36:29.901Z,98354.53
2023-05-21T06:38:57.211Z,98359.75
2023-05-21T06:41:24.240Z,98350.25
2023-05-21T06:43:51.398Z,98348.19
2023-05-21T06:46:18.360Z,98345.41
2023-05-21T06:48:46.326Z,98346.09
2023-05-21T06:51:13.876Z,98344.50
2023-05-21T06:53:40.950Z,98346.97
2023-05-21T06:56:08.020Z,98346.44
2023-05-21T06:58:34.932Z,98343.63
2023-05-21T07:01:01.965Z,98339.56
2023-05-21T07:03:29.117Z,98346.69
2023-05-21T07:05:57.969Z,98349.66
2023-05-21T07:08:24.914Z,98350.38
2023-05-21T07:10:51.896Z,98349.06
2023-05-21T07:13:18.713Z,98352.00
2023-05-21T07:15:45.613Z,98356.06
2023-05-21T07:18:13.407Z,98346.00
2023-05-21T07:20:40.572Z,98341.94
2023-05-21T07:23:07.422Z,98344.09
2023-05-21T07:25:34.430Z,98342.31
2023-05-21T07:28:01.594Z,98344.16
2023-05-21T07:30:28.482Z,98348.72
2023-05-21T07:32:55.486Z,98343.25
2023-05-21T07:35:22.538Z,98342.16
2023-05-21T07:37:49.494Z,98343.75
2023-05-21T07:40:18.809Z,98338.03
2023-05-21T07:42:45.838Z,98340.50
2023-05-21T07:45:12.771Z,98338.66
2023-05-21T07:47:39.677Z,98331.66
2023-05-21T07:50:07.171Z,98333.88
2023-05-21T07:52:34.042Z,98334.50
2023-05-21T07:55:02.244Z,98330.78
2023-05-21T07:57:29.349Z,98327.47
2023-05-21T07:59:56.604Z,98334.75
2023-05-21T08:02:23.522Z,98336.88
2023-05-21T08:04:50.441Z,98334.56
2023-05-21T08:07:20.140Z,98336.66
2023-05-21T08:09:47.119Z,98333.28
2023-05-21T08:12:15.826Z,98330.66
2023-05-21T08:14:42.808Z,98328.47
2023-05-21T08:17:11.343Z,98336.47
2023-05-21T08:19:38.286Z,98325.50
2023-05-21T08:22:06.792Z,98325.50
2023-05-21T08:24:35.468Z,98328.63
2023-05-21T08:27:02.325Z,98326.22
2023-05-21T08:29:29.163Z,98325.41
2023-05-21T08:31:56.415Z,98326.09
2023-05-21T08:34:23.318Z,98328.28
2023-05-21T08:36:50.356Z,98328.25
2023-05-21T08:39:17.688Z,98332.59
2023-05-21T08:41:49.411Z,98337.69
2023-05-21T08:44:22.036Z,98337.69
2023-05-21T08:46:53.509Z,98333.34
2023-05-21T08:49:30.738Z,98336.47
2023-05-21T08:51:59.129Z,98340.81
2023-05-21T08:54:29.010Z,98338.88
2023-05-21T08:56:58.523Z,98340.50
2023-05-21T08:59:26.714Z,98350.06
2023-05-21T09:01:57.125Z,98337.47
2023-05-21T09:04:24.766Z,98343.81
2023-05-21T09:06:57.799Z,98338.72
2023-05-21T09:09:36.324Z,98342.72
2023-05-21T09:12:03.567Z,98347.47
2023-05-21T09:14:35.967Z,98344.75
2023-05-21T09:17:03.274Z,98342.00
2023-05-21T09:19:32.047Z,98346.78
2023-05-21T09:22:05.497Z,98344.03
2023-05-21T09:24:34.421Z,98350.78
2023-05-21T09:27:06.807Z,98350.41
2023-05-21T09:29:34.694Z,98359.50
2023-05-21T09:32:07.764Z,98358.00
2023-05-21T09:34:37.071Z,98353.66
2023-05-21T09:37:06.558Z,98339.84
2023-05-21T09:39:36.098Z,98350.19
2023-05-21T09:42:03.068Z,98343.94
2023-05-21T09:44:29.957Z,98351.09
2023-05-21T09:47:01.049Z,98349.97
2023-05-21T09:49:28.416Z,98351.91
2023-05-21T09:51:59.005Z,98351.50
2023-05-21T09:54:33.439Z,98353.94
2023-05-21T09:57:05.404Z,98359.50
2023-05-21T09:59:39.439Z,98346.97
2023-05-21T10:02:20.212Z,98350.94
2023-05-21T10:04:50.682Z,98353.75
2023-05-21T10:07:26.173Z,98361.66
2023-05-21T10:09:59.864Z,98355.31
2023-05-21T10:12:30.772Z,98355.66
2023-05-21T10:15:03.637Z,98353.63
2023-05-21T10:17:31.209Z,98349.66
2023-05-21T10:20:00.915Z,98363.00
2023-05-21T10:22:28.555Z,98358.63
2023-05-21T10:24:57.566Z,98358.59
2023-05-21T10:27:24.696Z,98347.53
2023-05-21T10:29:56.513Z,98352.34
2023-05-21T10:32:28.198Z,98353.56
2023-05-21T10:34:57.415Z,98355.13
2023-05-21T10:37:27.556Z,98355.50
2023-05-21T10:39:56.051Z,98352.28
2023-05-21T10:43:21.820Z,98348.91
2023-05-21T10:46:32.599Z,98349.84
2023-05-21T10:49:02.333Z,98354.16
2023-05-21T10:51:52.280Z,98353.41
2023-05-21T10:54:59.467Z,98343.22
2023-05-21T10:58:10.823Z,98349.53
2023-05-21T11:00:38.636Z,98350.31
2023-05-21T11:03:07.447Z,98342.38
2023-05-21T11:05:55.115Z,98350.31
2023-05-21T11:08:25.611Z,98348.00
2023-05-21T11:10:54.849Z,98350.34
2023-05-21T11:13:22.109Z,98347.91
2023-05-21T11:16:06.181Z,98349.41
2023-05-21T11:18:36.048Z,98335.50
2023-05-21T11:21:12.327Z,98344.19
2023-05-21T11:24:01.143Z,98341.94
2023-05-21T11:26:47.818Z,98346.50
2023-05-21T11:29:15.090Z,98345.41
2023-05-21T11:32:01.326Z,98348.03
2023-05-21T11:34:47.837Z,98343.22
2023-05-21T11:37:23.197Z,98336.06
2023-05-21T11:39:51.960Z,98347.94
2023-05-21T11:42:35.339Z,98338.25
2023-05-21T11:45:04.677Z,98336.56
2023-05-21T11:47:32.512Z,98335.31
2023-05-21T11:50:02.491Z,98335.38
2023-05-21T11:52:33.289Z,98335.53
2023-05-21T11:55:00.201Z,98336.72
2023-05-21T11:57:33.562Z,98343.03
2023-05-21T12:00:03.773Z,98339.50
2023-05-21T12:02:33.786Z,98336.50
2023-05-21T12:05:00.867Z,98338.94
2023-05-21T12:07:31.981Z,98336.19
2023-05-21T12:10:00.389Z,98345.34
2023-05-21T12:12:33.052Z,98337.13
2023-05-21T12:15:10.320Z,98344.72
2023-05-21T12:17:37.280Z,98343.63
2023-05-21T12:20:08.355Z,98335.75
2023-05-21T12:22:35.211Z,98336.56
2023-05-21T12:25:04.244Z,98335.47
2023-05-21T12:27:32.359Z,98333.91
2023-05-21T12:30:00.351Z,98332.34
2023-05-21T12:32:30.781Z,98330.34
2023-05-21T12:34:57.664Z,98331.50
2023-05-21T12:37:28.032Z,98334.72
2023-05-21T12:40:01.409Z,98331.50
2023-05-21T12:42:37.312Z,98333.91
2023-05-21T12:45:09.673Z,98332.69
2023-05-21T12:47:36.884Z,98333.53
2023-05-21T12:50:13.753Z,98332.34
2023-05-21T12:52:43.843Z,98331.19
2023-05-21T12:55:15.455Z,98343.09
2023-05-21T12:57:43.826Z,98342.72
2023-05-21T13:00:12.026Z,98339.13
2023-05-21T13:02:41.324Z,98329.66
2023-05-21T13:05:11.610Z,98336.78
2023-05-21T13:07:39.959Z,98327.72
2023-05-21T13:10:12.263Z,98325.31
2023-05-21T13:12:40.755Z,98332.81
2023-05-21T13:15:10.454Z,98321.72
2023-05-21T13:17:37.761Z,98328.03
2023-05-21T13:20:09.452Z,98326.91
2023-05-21T13:22:42.483Z,98323.78
2023-05-21T13:25:18.830Z,98318.25
2023-05-21T13:27:47.282Z,98323.78
2023-05-21T13:30:14.224Z,98319.41
2023-05-21T13:32:43.032Z,98318.66
2023-05-21T13:35:11.983Z,98319.53
2023-05-21T13:37:42.578Z,98325.47
2023-05-21T13:40:12.335Z,98325.88
2023-05-21T13:42:39.174Z,98319.50
2023-05-21T13:45:12.385Z,98328.59
2023-05-21T13:47:40.735Z,98320.69
2023-05-21T13:50:09.278Z,98323.88
2023-05-21T13:52:37.555Z,98328.59
2023-05-21T13:55:05.797Z,98315.56
2023-05-21T13:57:32.620Z,98324.59
2023-05-21T14:00:00.802Z,98316.25
2023-05-21T14:02:27.803Z,98320.16
2023-05-21T14:04:54.737Z,98317.75
2023-05-21T14:07:22.629Z,98323.25
2023-05-21T14:09:49.760Z,98313.69
2023-05-21T14:12:17.170Z,98316.84
2023-05-21T14:14:44.155Z,98317.16
2023-05-21T14:17:11.022Z,98313.56
2023-05-21T14:19:37.817Z,98317.03
2023-05-21T14:22:04.800Z,98316.97
2023-05-21T14:24:31.717Z,98318.16
2023-05-21T14:26:58.584Z,98318.06
2023-05-21T14:29:25.548Z,98314.03
2023-05-21T14:31:52.653Z,98318.00
2023-05-21T14:34:19.552Z,98309.69
2023-05-21T14:36:46.435Z,98305.34
2023-05-21T14:39:13.816Z,98302.19
2023-05-21T14:41:40.824Z,98296.56
2023-05-21T14:44:08.206Z,98300.94
2023-05-21T14:46:35.589Z,98295.44
2023-05-21T14:49:03.721Z,98295.88
2023-05-21T14:51:31.564Z,98288.78
2023-05-21T14:53:58.969Z,98288.41
2023-05-21T14:56:27.592Z,98295.22
2023-05-21T14:58:54.766Z,98284.50
2023-05-21T15:01:22.176Z,98296.88
2023-05-21T15:03:49.326Z,98290.94
2023-05-21T15:06:16.550Z,98291.81
2023-05-21T15:08:43.741Z,98287.13
2023-05-21T15:11:11.442Z,98290.31
2023-05-21T15:13:39.038Z,98288.41
2023-05-21T15:16:06.381Z,98280.97
2023-05-21T15:18:33.575Z,98286.88
2023-05-21T15:21:00.544Z,98284.19
2023-05-21T15:23:27.521Z,98283.44
2023-05-21T15:25:54.437Z,98282.31
2023-05-21T15:28:22.862Z,98277.16
2023-05-21T15:30:49.710Z,98286.28
2023-05-21T15:33:16.527Z,98291.84
2023-05-21T15:35:44.049Z,98287.91
2023-05-21T15:38:11.176Z,98284.78
2023-05-21T15:40:41.923Z,98284.00
2023-05-21T15:43:08.975Z,98283.66
2023-05-21T15:45:38.319Z,98287.22
2023-05-21T15:48:06.135Z,98293.19
2023-05-21T15:50:35.399Z,98292.00
2023-05-21T15:53:04.091Z,98292.00
2023-05-21T15:55:34.423Z,98292.81
2023-05-21T15:58:03.729Z,98285.31
2023-05-21T16:00:30.646Z,98292.03
2023-05-21T16:02:57.548Z,98289.66
2023-05-21T16:05:24.509Z,98290.44
2023-05-21T16:07:51.400Z,98296.81
2023-05-21T16:10:18.750Z,98291.66
2023-05-21T16:12:45.676Z,98287.72
2023-05-21T16:15:12.890Z,98289.69
2023-05-21T16:17:39.827Z,98286.94
2023-05-21T16:20:07.758Z,98290.09
2023-05-21T16:22:34.562Z,98282.19
2023-05-21T16:25:01.319Z,98283.78
2023-05-21T16:27:28.184Z,98281.84
2023-05-21T16:29:55.025Z,98284.97
2023-05-21T16:32:22.379Z,98282.63
2023-05-21T16:34:49.577Z,98287.75
2023-05-21T16:37:17.350Z,98285.00
2023-05-21T16:39:46.719Z,98288.13
2023-05-21T16:42:13.544Z,98286.56
2023-05-21T16:44:40.774Z,98285.38
2023-05-21T16:47:07.587Z,98281.44
2023-05-21T16:49:34.354Z,98279.09
2023-05-21T16:52:03.908Z,98274.72
2023-05-21T16:54:30.821Z,98285.41
2023-05-21T16:56:57.613Z,98283.41
2023-05-21T16:59:27.437Z,98283.81
2023-05-21T17:01:54.251Z,98285.38
2023-05-21T17:04:21.098Z,98285.34
2023-05-21T17:06:48.060Z,98284.13
2023-05-21T17:09:15.601Z,98289.66
2023-05-21T17:11:45.714Z,98280.56
2023-05-21T17:14:17.560Z,98280.56
2023-05-21T17:16:50.432Z,98277.78
2023-05-21T17:19:17.292Z,98280.56
2023-05-21T17:21:44.179Z,98284.47
2023-05-21T17:24:11.380Z,98275.38
2023-05-21T17:26:38.234Z,98280.09
2023-05-21T17:29:05.382Z,98280.09
2023-05-21T17:31:32.765Z,98269.81
2023-05-21T17:34:00.933Z,98270.59
2023-05-21T17:36:27.747Z,98274.13
2023-05-21T17:38:55.400Z,98288.66
2023-05-21T17:41:22.497Z,98281.53
2023-05-21T17:43:49.312Z,98279.53
2023-05-21T17:46:17.810Z,98281.47
2023-05-21T17:48:45.462Z,98281.44
2023-05-21T17:51:12.994Z,98286.56
2023-05-21T17:53:43.212Z,98284.56
2023-05-21T17:56:11.238Z,98290.44
2023-05-21T17:58:38.151Z,98284.53
2023-05-21T18:01:05.144Z,98288.47
2023-05-21T18:03:32.192Z,98286.06
2023-05-21T18:05:59.356Z,98291.94
2023-05-21T18:08:26.966Z,98288.34
2023-05-21T18:10:53.779Z,98289.00
2023-05-21T18:13:20.571Z,98299.97
2023-05-21T18:15:48.166Z,98303.50
2023-05-21T18:18:20.638Z,98301.16
2023-05-21T18:20:49.607Z,98296.34
2023-05-21T18:23:17.693Z,98294.66
2023-05-21T18:25:44.572Z,98298.53
2023-05-21T18:28:11.397Z,98301.59
2023-05-21T18:30:38.480Z,98299.97
2023-05-21T18:33:05.890Z,98296.78
2023-05-21T18:35:32.844Z,98297.19
2023-05-21T18:37:59.668Z,98301.44
2023-05-21T18:40:30.383Z,98315.50
2023-05-21T18:42:57.727Z,98307.81
2023-05-21T18:45:24.709Z,98306.94
2023-05-21T18:47:51.645Z,98308.81
2023-05-21T18:50:19.429Z,98309.91
2023-05-21T18:52:46.718Z,98313.69
2023-05-21T18:55:14.588Z,98315.97
2023-05-21T18:57:41.516Z,98316.44
2023-05-21T19:00:09.865Z,98310.91
2023-05-21T19:02:40.619Z,98320.25
2023-05-21T19:05:08.350Z,98317.09
2023-05-21T19:07:36.273Z,98321.75
2023-05-21T19:10:04.447Z,98320.47
2023-05-21T19:12:31.751Z,98316.78
2023-05-21T19:14:58.799Z,98323.34
2023-05-21T19:17:25.802Z,98322.50
2023-05-21T19:19:56.830Z,98322.41
2023-05-21T19:22:30.354Z,98325.44
2023-05-21T19:24:57.376Z,98321.34
2023-05-21T19:27:24.408Z,98334.13
2023-05-21T19:29:53.021Z,98326.19
2023-05-21T19:32:21.158Z,98337.47
2023-05-21T19:34:48.584Z,98333.78
2023-05-21T19:37:15.828Z,98343.44
2023-05-21T19:39:43.741Z,98339.41
2023-05-21T19:42:11.459Z,98343.19
2023-05-21T19:44:41.689Z,98343.09
2023-05-21T19:47:08.902Z,98341.00
2023-05-21T19:49:35.754Z,98349.31
2023-05-21T19:52:02.700Z,98345.50
2023-05-21T19:54:29.465Z,98347.09
2023-05-21T19:56:56.752Z,98352.41
2023-05-21T19:59:23.624Z,98355.03
2023-05-21T20:01:50.498Z,98356.91
2023-05-21T20:04:17.470Z,98348.19
2023-05-21T20:06:44.352Z,98355.69
2023-05-21T20:09:13.187Z,98358.44
2023-05-21T20:11:42.154Z,98359.94
2023-05-21T20:14:09.400Z,98358.16
2023-05-21T20:16:36.854Z,98354.72
2023-05-21T20:19:03.949Z,98358.59
2023-05-21T20:21:33.598Z,98357.63
2023-05-21T20:24:00.496Z,98357.63
2023-05-21T20:26:27.372Z,98359.94
2023-05-21T20:28:56.380Z,98359.34
2023-05-21T20:31:25.110Z,98350.38
2023-05-21T20:33:57.233Z,98356.50
2023-05-21T20:36:25.675Z,98346.53
2023-05-21T20:38:52.728Z,98351.09
2023-05-21T20:41:23.101Z,98358.50
2023-05-21T20:43:50.777Z,98359.59
2023-05-21T20:46:18.918Z,98357.91
2023-05-21T20:48:45.867Z,98350.66
2023-05-21T20:51:12.702Z,98359.78
2023-05-21T20:53:40.811Z,98352.94
2023-05-21T20:56:11.736Z,98358.00
2023-05-21T20:58:39.804Z,98355.00
2023-05-21T21:01:07.641Z,98352.81
2023-05-21T21:03:34.695Z,98363.16
2023-05-21T21:06:01.855Z,98352.84
2023-05-21T21:08:28.923Z,98352.03
2023-05-21T21:10:55.762Z,98353.72
2023-05-21T21:13:22.889Z,98361.41
2023-05-21T21:15:50.069Z,98359.81
2023-05-21T21:18:17.512Z,98354.78
2023-05-21T21:20:49.986Z,98359.63
2023-05-21T21:23:17.742Z,98363.25
2023-05-21T21:25:44.968Z,98363.25
2023-05-21T21:28:11.866Z,98360.88
2023-05-21T21:30:42.263Z,98372.28
2023-05-21T21:33:09.965Z,98372.72
2023-05-21T21:35:39.692Z,98368.53
2023-05-21T21:38:06.669Z,98369.59
2023-05-21T21:40:33.638Z,98365.78
2023-05-21T21:43:00.615Z,98367.84
2023-05-21T21:45:29.791Z,98367.50
2023-05-21T21:47:56.806Z,98366.59
2023-05-21T21:50:29.036Z,98361.00
2023-05-21T21:52:57.163Z,98368.97
2023-05-21T21:55:24.353Z,98364.53
2023-05-21T21:57:51.356Z,98365.84
2023-05-21T22:00:18.632Z,98367.59
2023-05-21T22:02:48.352Z,98372.81
2023-05-21T22:05:22.764Z,98367.97
2023-05-21T22:07:51.440Z,98370.44
2023-05-21T22:10:18.726Z,98365.03
2023-05-21T22:12:46.186Z,98369.59
2023-05-21T22:15:27.976Z,98373.84
2023-05-21T22:17:55.646Z,98360.84
2023-05-21T22:20:23.093Z,98359.84
2023-05-21T22:22:50.175Z,98364.41
2023-05-21T22:25:17.130Z,98351.88
2023-05-21T22:27:46.455Z,98360.66
2023-05-21T22:30:13.563Z,98360.47
2023-05-21T22:32:40.618Z,98364.53
2023-05-21T22:35:11.079Z,98355.66
2023-05-21T22:37:39.753Z,98361.16
2023-05-21T22:40:07.803Z,98360.94
2023-05-21T22:42:36.231Z,98371.00
2023-05-21T22:45:03.900Z,98371.31
2023-05-21T22:47:32.057Z,98369.41
2023-05-21T22:50:01.265Z,98365.28
2023-05-21T22:52:28.790Z,98359.88
2023-05-21T22:54:57.741Z,98360.25
2023-05-21T22:57:24.528Z,98360.50
2023-05-21T22:59:51.334Z,98364.94
2023-05-21T23:02:18.413Z,98363.28
2023-05-21T23:04:45.353Z,98366.78
2023-05-21T23:07:12.505Z,98368.50
2023-05-21T23:09:39.532Z,98367.59
2023-05-21T23:12:07.286Z,98362.00
2023-05-21T23:14:34.228Z,98361.09
2023-05-21T23:17:05.201Z,98364.63
2023-05-21T23:19:32.792Z,98363.41
2023-05-21T23:22:00.318Z,98354.06
2023-05-21T23:24:29.238Z,98355.75
2023-05-21T23:27:01.550Z,98361.91
2023-05-21T23:29:29.687Z,98357.25
2023-05-21T23:31:56.621Z,98361.00
2023-05-21T23:34:24.804Z,98366.94
2023-05-21T23:36:52.018Z,98364.88
2023-05-21T23:39:21.575Z,98358.03
2023-05-21T23:41:48.791Z,98366.25
2023-05-21T23:44:16.420Z,98361.91
2023-05-21T23:46:43.554Z,98364.88
2023-05-21T23:49:10.469Z,98370.34
2023-05-21T23:51:41.084Z,98370.72
2023-05-21T23:54:10.588Z,98378.78
2023-05-21T23:56:40.205Z,98365.13
2023-05-21T23:59:07.015Z,98371.94
